createdAt,value
2023-02-28T00:01:22.860Z,12.77
2023-02-28T00:03:50.060Z,12.67
2023-02-28T00:06:17.641Z,13.40
2023-02-28T00:08:45.132Z,13.83
2023-02-28T00:11:14.956Z,13.93
2023-02-28T00:13:47.552Z,13.27
2023-02-28T00:16:18.370Z,12.83
2023-02-28T00:18:45.836Z,12.53
2023-02-28T00:21:12.895Z,13.37
2023-02-28T00:23:39.944Z,12.50
2023-02-28T00:26:07.155Z,13.37
2023-02-28T00:28:34.343Z,13.50
2023-02-28T00:31:01.577Z,13.93
2023-02-28T00:33:30.467Z,13.63
2023-02-28T00:36:08.947Z,12.33
2023-02-28T00:38:37.266Z,12.37
2023-02-28T00:41:05.885Z,12.57
2023-02-28T00:43:38.235Z,13.27
2023-02-28T00:46:06.104Z,13.83
2023-02-28T00:48:33.698Z,14.17
2023-02-28T00:51:00.968Z,12.90
2023-02-28T00:53:28.162Z,13.77
2023-02-28T00:55:58.149Z,13.00
2023-02-28T00:58:26.461Z,13.07
2023-02-28T01:00:54.822Z,13.20
2023-02-28T01:03:23.684Z,13.33
2023-02-28T01:05:51.420Z,12.70
2023-02-28T01:08:18.539Z,13.00
2023-02-28T01:10:45.920Z,12.77
2023-02-28T01:13:13.350Z,12.80
2023-02-28T01:15:47.637Z,13.17
2023-02-28T01:18:14.685Z,13.17
2023-02-28T01:20:41.898Z,12.73
2023-02-28T01:23:10.192Z,13.03
2023-02-28T01:25:37.556Z,13.00
2023-02-28T01:28:06.866Z,13.17
2023-02-28T01:30:35.240Z,13.20
2023-02-28T01:33:02.387Z,12.70
2023-02-28T01:35:29.435Z,12.67
2023-02-28T01:38:01.191Z,13.70
2023-02-28T01:40:32.208Z,12.70
2023-02-28T01:42:59.332Z,13.20
2023-02-28T01:45:35.361Z,13.60
2023-02-28T01:48:06.599Z,13.50
2023-02-28T01:50:38.857Z,13.13
2023-02-28T01:53:09.785Z,13.07
2023-02-28T01:55:37.978Z,13.60
2023-02-28T01:58:07.924Z,14.30
2023-02-28T02:00:35.170Z,14.20
2023-02-28T02:03:09.796Z,14.33
2023-02-28T02:05:39.980Z,14.13
2023-02-28T02:08:17.845Z,13.87
2023-02-28T02:10:50.394Z,14.13
2023-02-28T02:13:53.895Z,14.70
2023-02-28T02:16:59.409Z,14.13
2023-02-28T02:19:48.163Z,13.80
2023-02-28T02:22:21.179Z,13.87
2023-02-28T02:25:06.258Z,14.67
2023-02-28T02:27:37.380Z,14.27
2023-02-28T02:30:23.090Z,14.23
2023-02-28T02:33:28.241Z,13.70
2023-02-28T02:36:02.306Z,15.50
2023-02-28T02:38:39.605Z,14.77
2023-02-28T02:41:30.693Z,15.17
2023-02-28T02:44:12.546Z,15.50
2023-02-28T02:46:44.660Z,15.73
2023-02-28T02:49:24.105Z,15.33
2023-02-28T02:51:54.273Z,16.07
2023-02-28T02:54:29.729Z,15.70
2023-02-28T02:57:00.553Z,15.33
2023-02-28T02:59:31.169Z,15.43
2023-02-28T03:02:02.595Z,15.67
2023-02-28T03:04:35.911Z,16.17
2023-02-28T03:07:03.011Z,16.00
2023-02-28T03:09:30.079Z,16.77
2023-02-28T03:11:57.779Z,17.40
2023-02-28T03:14:39.603Z,17.67
2023-02-28T03:17:21.420Z,16.57
2023-02-28T03:19:54.483Z,19.03
2023-02-28T03:22:42.640Z,18.97
2023-02-28T03:25:54.851Z,19.87
2023-02-28T03:28:59.517Z,19.90
2023-02-28T03:31:40.823Z,20.20
2023-02-28T03:34:34.120Z,20.13
2023-02-28T03:37:06.945Z,20.07
2023-02-28T03:39:42.389Z,19.57
2023-02-28T03:42:24.910Z,19.47
2023-02-28T03:45:01.955Z,18.93
2023-02-28T03:47:36.474Z,19.73
2023-02-28T03:50:25.747Z,19.43
2023-02-28T03:53:02.437Z,19.63
2023-02-28T03:55:44.057Z,18.20
2023-02-28T03:58:40.114Z,18.37
2023-02-28T04:01:38.789Z,20.57
2023-02-28T04:04:06.481Z,21.13
2023-02-28T04:06:34.781Z,21.43
2023-02-28T04:09:02.939Z,22.17
2023-02-28T04:11:37.382Z,21.03
2023-02-28T04:14:05.739Z,21.07
2023-02-28T04:16:35.827Z,21.60
2023-02-28T04:19:07.469Z,21.83
2023-02-28T04:21:45.689Z,20.00
2023-02-28T04:24:19.216Z,21.50
2023-02-28T04:26:51.574Z,20.73
2023-02-28T04:29:29.581Z,21.87
2023-02-28T04:31:59.130Z,21.83
2023-02-28T04:34:27.971Z,22.37
2023-02-28T04:37:11.955Z,21.83
2023-02-28T04:39:39.780Z,23.00
2023-02-28T04:42:07.511Z,23.37
2023-02-28T04:44:34.499Z,23.83
2023-02-28T04:47:01.617Z,23.13
2023-02-28T04:49:28.725Z,22.60
2023-02-28T04:51:56.764Z,23.30
2023-02-28T04:54:23.861Z,23.77
2023-02-28T04:56:51.305Z,23.37
2023-02-28T04:59:18.605Z,23.53
2023-02-28T05:01:50.107Z,23.43
2023-02-28T05:04:17.272Z,23.87
2023-02-28T05:06:44.492Z,24.23
2023-02-28T05:09:14.452Z,25.00
2023-02-28T05:11:42.244Z,24.37
2023-02-28T05:14:14.396Z,23.23
2023-02-28T05:16:41.575Z,25.03
2023-02-28T05:19:08.813Z,23.47
2023-02-28T05:21:39.636Z,25.20
2023-02-28T05:24:13.170Z,24.67
2023-02-28T05:26:43.962Z,25.53
2023-02-28T05:29:11.631Z,24.77
2023-02-28T05:31:39.181Z,25.00
2023-02-28T05:34:06.537Z,27.17
2023-02-28T05:36:33.981Z,26.63
2023-02-28T05:39:00.991Z,25.97
2023-02-28T05:41:28.578Z,25.83
2023-02-28T05:43:55.928Z,27.33
2023-02-28T05:46:22.899Z,26.43
2023-02-28T05:48:50.470Z,27.53
2023-02-28T05:51:18.390Z,26.57
2023-02-28T05:53:45.604Z,26.40
2023-02-28T05:56:12.619Z,26.53
2023-02-28T05:58:39.692Z,27.33
2023-02-28T06:01:37.716Z,26.73
2023-02-28T06:04:06.841Z,26.40
2023-02-28T06:06:38.024Z,25.67
2023-02-28T06:09:06.514Z,25.30
2023-02-28T06:11:34.144Z,24.67
2023-02-28T06:14:02.147Z,24.93
2023-02-28T06:16:30.869Z,25.80
2023-02-28T06:19:02.972Z,24.57
2023-02-28T06:21:30.920Z,24.17
2023-02-28T06:23:59.329Z,24.80
2023-02-28T06:26:26.881Z,23.40
2023-02-28T06:28:54.231Z,23.67
2023-02-28T06:31:22.156Z,23.40
2023-02-28T06:33:49.717Z,23.77
2023-02-28T06:36:17.552Z,24.53
2023-02-28T06:38:45.481Z,25.40
2023-02-28T06:41:12.749Z,26.77
2023-02-28T06:43:43.275Z,24.97
2023-02-28T06:46:14.922Z,26.23
2023-02-28T06:48:43.716Z,28.20
2023-02-28T06:51:16.593Z,28.03
2023-02-28T06:53:43.716Z,28.53
2023-02-28T06:56:16.057Z,28.60
2023-02-28T06:58:46.784Z,27.73
2023-02-28T07:01:15.254Z,27.30
2023-02-28T07:03:42.189Z,28.97
2023-02-28T07:06:09.186Z,27.43
2023-02-28T07:08:37.044Z,27.97
2023-02-28T07:11:05.330Z,26.03
2023-02-28T07:13:32.373Z,26.73
2023-02-28T07:16:02.161Z,27.47
2023-02-28T07:18:29.760Z,27.93
2023-02-28T07:20:56.956Z,27.03
2023-02-28T07:23:24.219Z,26.03
2023-02-28T07:25:52.154Z,25.93
2023-02-28T07:28:19.375Z,25.53
2023-02-28T07:30:46.581Z,26.17
2023-02-28T07:33:13.608Z,24.73
2023-02-28T07:35:40.752Z,24.80
2023-02-28T07:38:08.804Z,25.30
2023-02-28T07:40:36.906Z,26.03
2023-02-28T07:43:04.821Z,25.83
2023-02-28T07:45:35.502Z,23.20
2023-02-28T07:48:03.402Z,23.67
2023-02-28T07:50:31.914Z,22.50
2023-02-28T07:53:01.854Z,22.13
2023-02-28T07:55:31.215Z,21.60
2023-02-28T07:57:59.147Z,21.50
2023-02-28T08:00:26.458Z,20.90
2023-02-28T08:02:53.488Z,21.00
2023-02-28T08:05:22.217Z,19.63
2023-02-28T08:07:51.393Z,18.80
2023-02-28T08:10:18.668Z,18.53
2023-02-28T08:12:45.767Z,17.80
2023-02-28T08:15:12.845Z,18.00
2023-02-28T08:17:40.076Z,16.97
2023-02-28T08:20:07.826Z,16.23
2023-02-28T08:22:34.944Z,14.17
2023-02-28T08:25:02.007Z,13.50
2023-02-28T08:27:28.955Z,14.20
2023-02-28T08:29:56.015Z,14.47
2023-02-28T08:32:29.759Z,14.40
2023-02-28T08:34:57.484Z,13.17
2023-02-28T08:37:24.793Z,12.57
2023-02-28T08:39:55.656Z,11.80
2023-02-28T08:42:23.797Z,9.90
2023-02-28T08:44:50.787Z,9.53
2023-02-28T08:47:17.864Z,8.57
2023-02-28T08:49:44.916Z,10.17
2023-02-28T08:52:12.027Z,10.60
2023-02-28T08:54:39.217Z,9.13
2023-02-28T08:57:06.415Z,9.17
2023-02-28T08:59:33.706Z,8.93
2023-02-28T09:02:00.827Z,8.63
2023-02-28T09:04:27.988Z,9.30
2023-02-28T09:06:54.937Z,9.37
2023-02-28T09:09:21.908Z,10.30
2023-02-28T09:11:48.831Z,9.80
2023-02-28T09:14:15.855Z,9.53
2023-02-28T09:16:43.070Z,9.77
2023-02-28T09:19:13.269Z,10.43
2023-02-28T09:21:40.791Z,9.80
2023-02-28T09:24:08.787Z,9.50
2023-02-28T09:26:42.905Z,9.87
2023-02-28T09:29:15.619Z,8.80
2023-02-28T09:31:42.726Z,8.50
2023-02-28T09:34:10.043Z,8.80
2023-02-28T09:36:45.785Z,8.60
2023-02-28T09:39:16.325Z,8.30
2023-02-28T09:41:51.277Z,8.20
2023-02-28T09:44:25.840Z,8.38
2023-02-28T09:46:58.548Z,7.30
2023-02-28T09:49:38.672Z,8.10
2023-02-28T09:52:13.189Z,7.93
2023-02-28T09:54:41.417Z,7.57
2023-02-28T09:57:41.916Z,7.82
2023-02-28T10:00:28.414Z,7.80
2023-02-28T10:03:13.765Z,8.40
2023-02-28T10:05:59.122Z,8.47
2023-02-28T10:08:34.815Z,8.17
2023-02-28T10:11:07.595Z,8.38
2023-02-28T10:13:45.504Z,8.37
2023-02-28T10:16:18.398Z,8.50
2023-02-28T10:18:50.003Z,8.57
2023-02-28T10:21:28.952Z,7.82
2023-02-28T10:24:04.495Z,8.23
2023-02-28T10:26:33.098Z,9.30
2023-02-28T10:29:00.750Z,8.17
2023-02-28T10:31:27.991Z,9.43
2023-02-28T10:33:55.151Z,9.37
2023-02-28T10:36:23.167Z,8.87
2023-02-28T10:38:51.446Z,9.63
2023-02-28T10:41:37.125Z,10.27
2023-02-28T10:44:23.662Z,9.50
2023-02-28T10:46:52.162Z,9.73
2023-02-28T10:49:26.976Z,9.73
2023-02-28T10:52:04.249Z,10.17
2023-02-28T10:54:36.409Z,9.53
2023-02-28T10:57:08.180Z,9.53
2023-02-28T10:59:35.254Z,10.43
2023-02-28T11:02:02.353Z,9.63
2023-02-28T11:04:41.953Z,9.37
2023-02-28T11:07:22.177Z,8.37
2023-02-28T11:09:56.817Z,9.43
2023-02-28T11:12:29.351Z,9.73
2023-02-28T11:15:00.916Z,9.57
2023-02-28T11:17:30.968Z,9.37
2023-02-28T11:20:04.963Z,9.30
2023-02-28T11:22:38.906Z,9.90
2023-02-28T11:25:23.300Z,10.93
2023-02-28T11:27:52.758Z,9.90
2023-02-28T11:30:26.791Z,9.63
2023-02-28T11:32:54.204Z,9.77
2023-02-28T11:35:37.018Z,10.13
2023-02-28T11:38:04.127Z,10.20
2023-02-28T11:40:47.691Z,10.10
2023-02-28T11:43:26.649Z,9.30
2023-02-28T11:46:29.058Z,9.63
2023-02-28T11:49:01.576Z,8.90
2023-02-28T11:51:34.678Z,9.70
2023-02-28T11:54:25.176Z,9.77
2023-02-28T11:57:15.368Z,9.53
2023-02-28T11:59:45.261Z,10.57
2023-02-28T12:02:26.194Z,10.70
2023-02-28T12:05:14.458Z,9.73
2023-02-28T12:07:53.087Z,9.40
2023-02-28T12:10:57.139Z,9.00
2023-02-28T12:13:51.225Z,9.50
2023-02-28T12:17:02.054Z,9.73
2023-02-28T12:19:31.830Z,9.43
2023-02-28T12:22:31.348Z,9.07
2023-02-28T12:25:04.206Z,9.37
2023-02-28T12:27:36.781Z,9.03
2023-02-28T12:30:20.807Z,9.03
2023-02-28T12:33:14.815Z,9.40
2023-02-28T12:36:12.937Z,9.33
2023-02-28T12:38:46.636Z,8.43
2023-02-28T12:41:27.811Z,9.00
2023-02-28T12:44:22.932Z,8.93
2023-02-28T12:46:58.092Z,8.80
2023-02-28T12:49:56.638Z,8.87
2023-02-28T12:53:00.605Z,8.97
2023-02-28T12:55:42.097Z,8.67
2023-02-28T12:58:20.270Z,9.60
2023-02-28T13:01:10.221Z,9.60
2023-02-28T13:04:11.816Z,9.10
2023-02-28T13:07:03.740Z,8.93
2023-02-28T13:09:30.952Z,8.80
2023-02-28T13:11:59.795Z,9.53
2023-02-28T13:14:33.794Z,9.83
2023-02-28T13:17:03.379Z,9.67
2023-02-28T13:19:33.675Z,9.23
2023-02-28T13:22:01.905Z,9.60
2023-02-28T13:24:48.237Z,10.00
2023-02-28T13:27:15.229Z,10.00
2023-02-28T13:29:45.488Z,9.60
2023-02-28T13:32:12.555Z,9.07
2023-02-28T13:34:40.979Z,9.03
2023-02-28T13:37:23.198Z,9.53
2023-02-28T13:40:04.423Z,9.77
2023-02-28T13:42:38.228Z,10.37
2023-02-28T13:45:05.296Z,10.27
2023-02-28T13:47:37.913Z,10.00
2023-02-28T13:50:29.287Z,10.23
2023-02-28T13:53:14.367Z,10.50
2023-02-28T13:56:07.679Z,9.97
2023-02-28T13:58:52.358Z,9.93
2023-02-28T14:01:38.131Z,9.63
2023-02-28T14:04:26.858Z,10.37
2023-02-28T14:06:56.085Z,9.87
2023-02-28T14:09:33.080Z,9.57
2023-02-28T14:12:39.217Z,8.87
2023-02-28T14:15:47.114Z,9.97
2023-02-28T14:18:24.354Z,10.50
2023-02-28T14:21:27.402Z,10.17
2023-02-28T14:24:10.135Z,10.57
2023-02-28T14:26:59.750Z,10.43
2023-02-28T14:29:44.931Z,9.90
2023-02-28T14:32:49.026Z,9.70
2023-02-28T14:35:44.141Z,9.53
2023-02-28T14:38:22.391Z,9.60
2023-02-28T14:40:52.394Z,9.83
2023-02-28T14:43:26.301Z,10.67
2023-02-28T14:46:03.411Z,10.67
2023-02-28T14:48:30.791Z,10.57
2023-02-28T14:51:02.123Z,10.00
2023-02-28T14:53:31.793Z,10.30
2023-02-28T14:55:59.117Z,10.10
2023-02-28T14:58:34.510Z,10.03
2023-02-28T15:01:03.978Z,10.10
2023-02-28T15:03:30.903Z,9.93
2023-02-28T15:06:00.945Z,10.80
2023-02-28T15:08:30.174Z,10.20
2023-02-28T15:11:01.886Z,9.73
2023-02-28T15:13:40.969Z,10.17
2023-02-28T15:16:13.649Z,9.80
2023-02-28T15:19:21.385Z,9.73
2023-02-28T15:21:54.373Z,10.17
2023-02-28T15:24:41.322Z,9.43
2023-02-28T15:27:37.880Z,10.07
2023-02-28T15:30:15.359Z,10.80
2023-02-28T15:32:42.689Z,10.27
2023-02-28T15:35:30.509Z,10.10
2023-02-28T15:38:02.173Z,10.50
2023-02-28T15:40:42.644Z,10.27
2023-02-28T15:43:18.594Z,10.87
2023-02-28T15:45:47.203Z,10.93
2023-02-28T15:48:19.105Z,11.23
2023-02-28T15:50:50.496Z,10.73
2023-02-28T15:53:25.403Z,11.37
2023-02-28T15:56:09.622Z,11.60
2023-02-28T15:58:38.008Z,11.20
2023-02-28T16:01:31.665Z,11.33
2023-02-28T16:04:07.321Z,10.80
2023-02-28T16:06:39.151Z,11.53
2023-02-28T16:09:10.081Z,10.83
2023-02-28T16:11:42.264Z,11.40
2023-02-28T16:14:21.618Z,11.30
2023-02-28T16:16:53.077Z,11.97
2023-02-28T16:19:20.932Z,11.53
2023-02-28T16:21:48.039Z,11.83
2023-02-28T16:24:15.206Z,12.00
2023-02-28T16:26:43.719Z,12.50
2023-02-28T16:29:20.511Z,11.40
2023-02-28T16:31:47.691Z,12.07
2023-02-28T16:34:14.646Z,12.67
2023-02-28T16:36:42.214Z,12.30
2023-02-28T16:39:09.258Z,12.40
2023-02-28T16:41:36.220Z,12.70
2023-02-28T16:44:10.162Z,12.77
2023-02-28T16:46:37.407Z,12.33
2023-02-28T16:49:04.371Z,12.93
2023-02-28T16:51:33.468Z,12.37
2023-02-28T16:54:02.274Z,12.90
2023-02-28T16:56:29.850Z,12.23
2023-02-28T16:59:01.161Z,12.50
2023-02-28T17:01:28.987Z,12.73
2023-02-28T17:03:56.466Z,12.80
2023-02-28T17:06:26.841Z,12.97
2023-02-28T17:08:54.216Z,13.63
2023-02-28T17:11:21.673Z,12.83
2023-02-28T17:13:49.027Z,13.17
2023-02-28T17:16:32.795Z,13.00
2023-02-28T17:19:02.267Z,13.03
2023-02-28T17:21:29.505Z,13.00
2023-02-28T17:23:57.028Z,13.67
2023-02-28T17:26:27.814Z,13.30
2023-02-28T17:28:58.012Z,13.80
2023-02-28T17:31:29.182Z,13.60
2023-02-28T17:33:56.343Z,13.00
2023-02-28T17:36:26.827Z,13.37
2023-02-28T17:38:56.162Z,13.13
2023-02-28T17:41:23.696Z,13.27
2023-02-28T17:43:51.916Z,13.80
2023-02-28T17:46:24.595Z,13.33
2023-02-28T17:48:54.019Z,13.43
2023-02-28T17:51:22.769Z,13.67
2023-02-28T17:53:50.242Z,14.07
2023-02-28T17:56:24.190Z,14.37
2023-02-28T17:58:52.963Z,14.23
2023-02-28T18:01:21.322Z,15.03
2023-02-28T18:03:49.397Z,13.13
2023-02-28T18:06:22.053Z,14.27
2023-02-28T18:08:49.667Z,14.30
2023-02-28T18:11:19.683Z,14.53
2023-02-28T18:13:55.212Z,14.10
2023-02-28T18:16:23.047Z,14.57
2023-02-28T18:18:50.323Z,14.30
2023-02-28T18:21:18.182Z,13.70
2023-02-28T18:23:48.563Z,15.10
2023-02-28T18:26:16.818Z,15.67
2023-02-28T18:28:47.332Z,14.50
2023-02-28T18:31:20.298Z,14.73
2023-02-28T18:33:51.382Z,14.37
2023-02-28T18:36:20.925Z,14.10
2023-02-28T18:38:50.511Z,14.30
2023-02-28T18:41:20.842Z,14.37
2023-02-28T18:43:48.456Z,14.03
2023-02-28T18:46:18.168Z,13.97
2023-02-28T18:48:46.255Z,14.67
2023-02-28T18:51:19.672Z,14.03
2023-02-28T18:53:47.331Z,14.30
2023-02-28T18:56:18.261Z,14.30
2023-02-28T18:58:46.178Z,15.33
2023-02-28T19:01:28.649Z,17.00
2023-02-28T19:03:57.011Z,16.57
2023-02-28T19:06:24.392Z,15.50
2023-02-28T19:08:56.184Z,15.57
2023-02-28T19:11:24.615Z,16.37
2023-02-28T19:13:52.457Z,17.90
2023-02-28T19:16:21.612Z,17.60
2023-02-28T19:18:48.912Z,18.20
2023-02-28T19:21:18.070Z,17.67
2023-02-28T19:23:45.481Z,17.57
2023-02-28T19:26:21.609Z,17.60
2023-02-28T19:28:49.143Z,18.63
2023-02-28T19:31:22.072Z,18.13
2023-02-28T19:33:49.525Z,19.63
2023-02-28T19:36:16.747Z,18.47
2023-02-28T19:38:46.844Z,18.57
2023-02-28T19:41:15.773Z,19.37
2023-02-28T19:43:43.137Z,18.40
2023-02-28T19:46:12.159Z,18.07
2023-02-28T19:48:40.159Z,19.00
2023-02-28T19:51:09.714Z,19.30
2023-02-28T19:53:38.592Z,20.40
2023-02-28T19:56:06.270Z,21.57
2023-02-28T19:58:33.672Z,21.20
2023-02-28T20:01:08.426Z,21.00
2023-02-28T20:03:35.625Z,22.77
2023-02-28T20:06:08.009Z,21.00
2023-02-28T20:08:35.768Z,22.53
2023-02-28T20:11:10.805Z,26.27
2023-02-28T20:13:38.110Z,24.63
2023-02-28T20:16:09.027Z,25.03
2023-02-28T20:18:37.530Z,24.97
2023-02-28T20:21:05.120Z,25.20
2023-02-28T20:23:32.155Z,23.20
2023-02-28T20:26:00.621Z,22.37
2023-02-28T20:28:28.034Z,22.57
2023-02-28T20:30:55.809Z,22.23
2023-02-28T20:33:23.391Z,21.80
2023-02-28T20:35:52.881Z,21.23
2023-02-28T20:38:20.411Z,20.60
2023-02-28T20:40:47.471Z,19.67
2023-02-28T20:43:14.373Z,18.97
2023-02-28T20:45:51.706Z,19.27
2023-02-28T20:48:19.086Z,18.70
2023-02-28T20:50:53.697Z,18.93
2023-02-28T20:53:21.576Z,18.93
2023-02-28T20:56:00.115Z,19.83
2023-02-28T20:58:30.675Z,19.90
2023-02-28T21:01:17.779Z,19.70
2023-02-28T21:03:50.554Z,19.17
2023-02-28T21:06:20.099Z,19.70
2023-02-28T21:08:47.663Z,20.97
2023-02-28T21:11:20.240Z,20.80
2023-02-28T21:13:47.767Z,21.40
2023-02-28T21:16:17.458Z,19.37
2023-02-28T21:18:44.942Z,21.70
2023-02-28T21:21:14.938Z,21.90
2023-02-28T21:23:42.464Z,22.03
2023-02-28T21:26:14.556Z,23.10
2023-02-28T21:28:44.162Z,23.43
2023-02-28T21:31:16.871Z,22.37
2023-02-28T21:33:45.372Z,23.27
2023-02-28T21:36:18.654Z,23.87
2023-02-28T21:38:46.977Z,23.97
2023-02-28T21:41:17.474Z,24.33
2023-02-28T21:43:46.048Z,22.80
2023-02-28T21:46:16.025Z,30.03
2023-02-28T21:48:43.989Z,25.63
2023-02-28T21:51:16.805Z,25.07
2023-02-28T21:53:44.401Z,24.97
2023-02-28T21:56:20.124Z,24.20
2023-02-28T21:58:47.926Z,24.37
2023-02-28T22:01:20.750Z,25.47
2023-02-28T22:03:49.235Z,25.33
2023-02-28T22:06:22.218Z,24.67
2023-02-28T22:08:52.478Z,25.70
2023-02-28T22:11:20.650Z,26.57
2023-02-28T22:13:50.848Z,27.33
2023-02-28T22:16:20.832Z,27.77
2023-02-28T22:18:48.115Z,28.50
2023-02-28T22:21:16.970Z,27.37
2023-02-28T22:23:44.879Z,27.67
2023-02-28T22:26:15.588Z,27.73
2023-02-28T22:28:42.772Z,29.07
2023-02-28T22:31:21.063Z,31.50
2023-02-28T22:33:49.309Z,29.43
2023-02-28T22:36:18.380Z,29.47
2023-02-28T22:38:46.842Z,28.37
2023-02-28T22:41:14.250Z,28.43
2023-02-28T22:43:42.504Z,27.13
2023-02-28T22:46:12.567Z,27.90
2023-02-28T22:48:40.148Z,30.30
2023-02-28T22:51:15.056Z,28.57
2023-02-28T22:53:46.315Z,29.27
2023-02-28T22:56:16.079Z,29.07
2023-02-28T22:58:48.583Z,27.73
2023-02-28T23:01:16.998Z,28.50
2023-02-28T23:03:44.297Z,27.83
2023-02-28T23:06:16.340Z,28.53
2023-02-28T23:08:43.929Z,30.00
2023-02-28T23:11:11.509Z,28.60
2023-02-28T23:13:38.497Z,29.30
2023-02-28T23:16:07.446Z,28.00
2023-02-28T23:18:34.758Z,29.20
2023-02-28T23:21:01.833Z,29.10
2023-02-28T23:23:29.025Z,27.93
2023-02-28T23:25:56.535Z,29.03
2023-02-28T23:28:23.642Z,30.00
2023-02-28T23:30:51.866Z,30.60
2023-02-28T23:33:18.914Z,31.50
2023-02-28T23:35:45.984Z,30.90
2023-02-28T23:38:13.571Z,34.40
2023-02-28T23:40:41.915Z,33.77
2023-02-28T23:43:08.865Z,33.43
2023-02-28T23:45:36.201Z,35.90
2023-02-28T23:48:03.313Z,34.57
2023-02-28T23:50:30.866Z,35.77
2023-02-28T23:52:58.075Z,36.13
2023-02-28T23:55:25.470Z,35.37
2023-02-28T23:57:52.422Z,36.10
